Latest Weather Observations for Perisher Valley

IDN60801

Issued at 7:02 pm EST Tuesday 25 July 2017 (issued every 30 minutes, with the page automatically refreshed every 10 minutes)

About weather observations | Map of weather stations | Latest weather observations for NSW | Other Formats
Station Details ID: 071075 Name: PERISHER VALLEY AWS Lat: -36.41 Lon: 148.41 Height: 1738.0 m
Data from the previous 72 hours. | See also: Recent months at Perisher Valley
Date/Time
EST
Temp
°C
App
Temp
°C
Dew
Point
°C
Rel
Hum
%
Delta-T
°C
Wind Press
QNH
hPa
Press
MSL
hPa
Rain since
9am
mm
Dir  Spd
km/h
Gust
km/h
Spd
kts
Gust
kts
25/07:00pm 2.4 -1.9 0.9 90 0.6 NNW 13 39 7 21 - - 0.0
25/06:30pm 2.3 -2.4 0.8 90 0.6 NW 15 33 8 18 - - 0.0
25/06:00pm 2.2 -2.2 0.6 89 0.7 WNW 13 48 7 26 - - 0.0
25/05:30pm 2.0 -2.4 0.2 88 0.8 W 13 39 7 21 - - 0.0
25/05:00pm 1.9 -3.3 -0.2 86 0.9 W 17 41 9 22 - - 0.0
25/04:30pm 2.0 -4.2 -0.4 84 1.0 W 22 48 12 26 - - 0.0
25/04:00pm 1.8 -4.7 0.3 90 0.6 W 24 52 13 28 - - 0.0
25/03:30pm 1.8 -6.8 0.5 91 0.5 W 35 67 19 36 - - 0.0
25/03:00pm 1.5 -6.6 0.8 95 0.3 W 33 59 18 32 - - 0.0
25/02:30pm 1.2 -7.7 0.6 96 0.3 W 37 57 20 31 - - 0.0
25/02:00pm 1.1 -7.5 0.5 96 0.2 W 35 59 19 32 - - 0.0
25/01:30pm 0.9 -7.7 0.0 94 0.4 W 35 57 19 31 - - 0.0
25/01:00pm 1.0 -6.3 0.0 93 0.4 WNW 28 48 15 26 - - 0.0
25/12:58pm 0.9 -6.4 0.0 94 0.4 WNW 28 48 15 26 - - 0.0
25/12:30pm 0.8 -6.1 -0.1 94 0.4 WNW 26 46 14 25 - - 0.0
25/12:00pm 0.6 -4.3 -0.3 94 0.4 WNW 15 37 8 20 - - 0.0
25/11:30am 0.5 -4.0 -0.2 95 0.3 WNW 13 30 7 16 - - 0.0
25/11:00am 0.5 -8.2 -0.4 94 0.4 WNW 35 63 19 34 - - 0.0
25/10:44am 0.7 -6.7 -0.6 91 0.5 W 28 59 15 32 - - 0.0
25/10:30am 0.6 -5.7 -0.7 91 0.5 W 22 46 12 25 - - 0.0
25/10:06am 0.6 -6.8 -0.5 92 0.4 W 28 56 15 30 - - 0.0
25/10:00am 0.5 -6.1 -0.5 93 0.4 W 24 56 13 30 - - 0.0
25/09:31am 0.6 -6.8 -1.0 89 0.7 WSW 28 48 15 26 - - 0.0
25/09:30am 0.6 -6.5 -1.2 88 0.7 W 26 48 14 26 - - 0.0
25/09:00am 0.4 -5.5 -0.7 92 0.5 W 20 46 11 25 - - 6.6
25/08:31am 0.1 -7.5 -2.0 86 0.8 W 28 59 15 32 - - 6.6
25/08:30am 0.1 -7.0 -1.6 88 0.7 W 26 52 14 28 - - 6.6
25/08:23am -0.1 -7.6 -1.7 89 0.6 W 28 52 15 28 - - 6.6
25/08:00am 0.0 -6.3 -0.8 94 0.3 W 22 46 12 25 - - 6.6
25/07:30am -0.3 -6.2 -0.6 98 0.1 W 20 35 11 19 - - 3.8
25/07:00am -0.3 -5.6 -0.6 98 0.1 WNW 17 41 9 22 - - 3.8
25/06:30am -0.5 -6.4 -0.9 97 0.1 WNW 20 39 11 21 - - 3.8
25/06:00am -0.4 -5.8 -1.1 95 0.3 W 17 35 9 19 - - 3.8
25/05:30am -0.8 -6.6 -1.6 94 0.3 WNW 19 30 10 16 - - 3.8
25/05:00am -0.8 -8.0 -2.1 91 0.5 W 26 43 14 23 - - 3.8
25/04:30am -0.9 -7.4 -2.3 90 0.5 W 22 41 12 22 - - 3.8
25/04:10am -0.9 -8.6 -2.6 88 0.6 W 28 46 15 25 - - 3.8
25/04:00am -0.9 -7.4 -2.3 90 0.5 W 22 43 12 23 - - 3.8
25/03:30am -1.2 -6.4 -2.8 89 0.5 WSW 15 28 8 15 - - 3.8
25/03:00am -1.0 -6.5 -1.8 94 0.3 W 17 33 9 18 - - 3.8
25/02:30am -0.8 -6.2 -1.5 95 0.2 W 17 37 9 20 - - 3.8
25/02:00am -0.9 -6.3 -1.7 94 0.3 W 17 32 9 17 - - 3.8
25/01:30am -0.9 -6.8 -2.0 92 0.4 W 19 35 10 19 - - 3.8
25/01:00am -0.7 -6.8 -2.3 89 0.6 W 20 39 11 21 - - 3.8
25/12:30am -0.7 -6.6 -2.6 87 0.7 WSW 19 39 10 21 - - 3.8
25/12:00am -0.5 -6.0 -1.8 91 0.5 W 17 54 9 29 - - 3.8
 
Date/Time
EST
Temp
°C
App
Temp
°C
Dew
Point
°C
Rel
Hum
%
Delta-T
°C
Wind Press
QNH
hPa
Press
MSL
hPa
Rain since
9am
mm
Dir  Spd
km/h
Gust
km/h
Spd
kts
Gust
kts
24/11:30pm -0.8 -6.9 -2.5 88 0.6 W 20 46 11 25 - - 3.8
24/11:00pm -0.9 -7.5 -2.9 86 0.7 W 22 39 12 21 - - 3.8
24/10:47pm -0.9 -8.5 -2.3 90 0.5 W 28 52 15 28 - - 3.8
24/10:30pm -1.1 -7.3 -3.0 87 0.7 W 20 46 11 25 - - 3.8
24/10:01pm -1.2 -8.9 -2.9 88 0.6 W 28 48 15 26 - - 3.8
24/10:00pm -1.2 -8.5 -2.9 88 0.6 W 26 48 14 26 - - 3.8
24/09:49pm -1.3 -9.0 -3.2 87 0.6 W 28 46 15 25 - - 3.8
24/09:30pm -1.4 -8.8 -3.4 86 0.7 W 26 46 14 25 - - 3.8
24/09:26pm -1.4 -9.2 -3.6 85 0.7 W 28 52 15 28 - - 3.8
24/09:00pm -1.2 -7.3 -2.3 92 0.4 W 20 39 11 21 - - 3.8
24/08:30pm -1.1 -7.1 -2.7 89 0.5 W 19 35 10 19 - - 3.8
24/08:00pm -0.9 -6.0 -2.2 91 0.5 W 15 43 8 23 - - 3.8
24/07:30pm -0.9 -6.4 -2.2 91 0.5 W 17 37 9 20 - - 3.8
24/07:00pm -0.8 -6.7 -2.1 91 0.5 W 19 35 10 19 - - 3.8
24/06:30pm -0.8 -6.9 -2.7 87 0.7 W 20 46 11 25 - - 3.8
24/06:00pm -0.7 -6.8 -2.0 91 0.5 W 20 33 11 18 - - 3.8
24/05:30pm -0.7 -7.9 -2.0 91 0.5 WNW 26 44 14 24 - - 3.8
24/05:22pm -0.6 -8.2 -1.9 91 0.5 WNW 28 50 15 27 - - 3.8
24/05:00pm -0.6 -6.7 -2.0 90 0.5 W 20 37 11 20 - - 3.8
24/04:30pm -0.4 -5.8 -1.7 91 0.5 W 17 32 9 17 - - 3.2
24/04:00pm -0.3 -6.2 -2.0 88 0.6 W 19 35 10 19 - - 3.2
24/03:30pm -0.2 -7.7 -1.2 93 0.4 WNW 28 46 15 25 - - 3.2
24/03:00pm -0.1 -5.9 -1.4 91 0.5 W 19 39 10 21 - - 3.2
24/02:30pm 0.0 -5.1 -1.6 89 0.6 W 15 35 8 19 - - 3.2
24/02:00pm 0.1 -5.8 -2.1 85 0.9 W 19 35 10 19 - - 3.0
24/01:30pm -0.1 -6.0 -2.0 87 0.7 W 19 46 10 25 - - 3.0
24/01:00pm 0.6 -4.1 -2.1 82 1.1 W 13 33 7 18 - - 3.0
24/12:30pm -0.2 -6.2 -1.9 88 0.6 W 20 39 11 21 - - 3.0
24/12:00pm -0.3 -5.8 -2.0 88 0.6 W 17 46 9 25 - - 2.8
24/11:30am -0.4 -6.3 -2.3 87 0.7 W 19 39 10 21 - - 2.6
24/11:00am -0.5 -6.1 -2.5 86 0.7 W 17 35 9 19 - - 0.0
24/10:30am -0.2 -6.2 -3.2 80 1.1 W 19 32 10 17 - - 0.0
24/10:00am -0.5 -5.7 -2.5 86 0.7 W 15 28 8 15 - - 0.0
24/09:30am -1.0 -7.0 -3.2 85 0.8 W 19 35 10 19 - - 0.0
24/09:00am -1.0 -7.1 -2.7 88 0.6 W 20 37 11 20 - - 0.0
24/08:30am -1.1 -7.1 -3.0 87 0.7 W 19 37 10 20 - - 0.0
24/08:00am -1.0 -7.5 -2.1 92 0.4 W 22 41 12 22 - - 0.0
24/07:30am -0.9 -7.8 -2.5 89 0.6 W 24 43 13 23 - - 0.0
24/07:00am -1.2 -7.7 -2.2 93 0.3 W 22 43 12 23 - - 0.0
24/06:42am -1.0 -8.6 -1.8 94 0.3 W 28 57 15 31 - - 0.0
24/06:30am -1.1 -7.9 -1.9 94 0.3 W 24 44 13 24 - - 0.0
24/06:00am -1.2 -8.0 -2.0 94 0.2 W 24 43 13 23 - - 0.0
24/05:45am -1.1 -8.7 -2.1 93 0.3 WNW 28 48 15 26 - - 0.0
24/05:30am -1.1 -7.9 -2.1 93 0.3 WNW 24 43 13 23 - - 0.0
24/05:00am -1.1 -9.1 -2.1 93 0.3 W 30 50 16 27 - - 0.0
24/04:37am -0.6 -8.1 -1.4 94 0.3 WNW 28 48 15 26 - - 0.0
24/04:30am -0.7 -8.2 -1.5 94 0.3 WNW 28 46 15 25 - - 0.0
24/04:14am -1.0 -8.6 -2.1 92 0.4 WNW 28 52 15 28 - - 0.0
24/04:00am -0.8 -7.6 -1.8 93 0.3 WNW 24 44 13 24 - - 0.0
24/03:31am -0.8 -8.8 -2.1 91 0.5 WNW 30 52 16 28 - - 0.0
24/03:30am -0.8 -9.2 -2.1 91 0.5 WNW 32 52 17 28 - - 0.0
24/03:00am -0.3 -5.7 -1.6 91 0.5 W 17 35 9 19 - - 0.0
24/02:30am -0.3 -6.3 -1.7 90 0.5 W 20 44 11 24 - - 0.0
24/02:01am -0.2 -7.3 -1.0 94 0.3 WNW 26 54 14 29 - - 0.0
24/02:00am -0.1 -6.8 -0.9 94 0.3 WNW 24 54 13 29 - - 0.0
24/01:57am -0.1 -6.4 -1.1 93 0.4 WNW 22 50 12 27 - - 0.0
24/01:30am 0.0 -6.0 -1.3 91 0.5 W 20 43 11 23 - - 0.0
24/01:00am 0.1 -5.6 -0.9 93 0.4 W 19 33 10 18 - - 0.0
24/12:30am 0.2 -6.0 -0.6 94 0.3 W 22 43 12 23 - - 0.0
24/12:02am 0.2 -7.2 -0.6 94 0.3 W 28 48 15 26 - - 0.0
24/12:00am 0.2 -6.8 -0.6 94 0.3 W 26 48 14 26 - - 0.0
 
Date/Time
EST
Temp
°C
App
Temp
°C
Dew
Point
°C
Rel
Hum
%
Delta-T
°C
Wind Press
QNH
hPa
Press
MSL
hPa
Rain since
9am
mm
Dir  Spd
km/h
Gust
km/h
Spd
kts
Gust
kts
23/11:30pm 0.3 -7.8 -0.4 95 0.3 WNW 32 57 17 31 - - 0.0
23/11:27pm 0.3 -7.1 -0.5 94 0.3 W 28 57 15 31 - - 0.0
23/11:00pm 0.3 -5.6 -0.5 94 0.3 W 20 43 11 23 - - 0.0
23/10:30pm 0.3 -7.5 -0.7 93 0.4 WNW 30 50 16 27 - - 0.0
23/10:07pm 0.4 -7.0 -0.6 93 0.4 WNW 28 54 15 29 - - 0.0
23/10:00pm 0.4 -5.3 -0.6 93 0.4 WNW 19 33 10 18 - - 0.0
23/09:30pm 0.3 -7.8 -0.3 96 0.2 WNW 32 54 17 29 - - 0.0
23/09:20pm 0.4 -7.0 -0.5 94 0.4 WNW 28 54 15 29 - - 0.0
23/09:00pm 0.3 -6.0 -0.7 93 0.4 WNW 22 39 12 21 - - 0.0
23/08:30pm 0.4 -4.9 -0.6 93 0.4 W 17 46 9 25 - - 0.0
23/08:00pm 0.2 -5.7 -0.5 95 0.3 W 20 41 11 22 - - 0.0
23/07:30pm 0.1 -6.6 -0.9 93 0.4 W 24 46 13 25 - - 0.0
23/07:00pm 0.1 -7.8 -1.3 90 0.6 W 30 52 16 28 - - 0.0
23/06:30pm 0.2 -7.4 -1.9 86 0.8 W 28 50 15 27 - - 0.0
23/06:00pm 0.1 -5.8 -2.1 85 0.9 W 19 41 10 22 - - 0.0
23/05:35pm 0.2 -7.4 -2.5 82 1.0 W 28 48 15 26 - - 0.0
23/05:30pm 0.1 -7.1 -2.1 85 0.9 W 26 44 14 24 - - 0.0
23/05:08pm 0.2 -7.4 -1.9 86 0.8 W 28 52 15 28 - - 0.0
23/05:00pm 0.2 -6.6 -2.0 85 0.9 W 24 52 13 28 - - 0.0
23/04:30pm 0.4 -7.5 -1.3 88 0.7 WNW 30 67 16 36 - - 0.0
23/04:13pm 0.7 -6.8 -1.2 87 0.8 WNW 28 50 15 27 - - 0.0
23/04:00pm 0.3 -6.4 -1.1 90 0.6 W 24 50 13 27 - - 0.0
23/03:30pm -0.3 -6.3 -1.3 93 0.4 W 20 39 11 21 - - 0.0
23/03:00pm 0.0 -5.8 -1.3 91 0.5 W 19 35 10 19 - - 0.0
23/02:30pm 0.1 -5.4 -2.0 86 0.8 W 17 39 9 21 - - 0.0
23/02:00pm 0.5 -5.4 -2.2 82 1.1 W 19 44 10 24 - - 0.0
23/01:30pm 0.5 -4.7 -2.7 79 1.3 W 15 35 8 19 - - 0.0
23/01:00pm -0.1 -5.4 -3.5 78 1.3 W 15 32 8 17 - - 0.0
23/12:30pm -0.6 -6.9 -4.3 76 1.3 W 20 43 11 23 - - 0.0
23/12:00pm -0.6 -7.3 -4.6 74 1.4 W 22 46 12 25 - - 0.0
23/11:30am 0.0 -6.3 -4.4 72 1.6 W 20 43 11 23 - - 0.0
23/11:09am 0.0 -7.9 -4.6 71 1.7 W 28 52 15 28 - - 0.0
23/11:00am -0.4 -7.9 -5.0 71 1.6 W 26 52 14 28 - - 0.0
23/10:30am -0.3 -8.6 -5.3 69 1.8 W 30 50 16 27 - - 0.0
23/10:02am -0.3 -8.3 -5.7 67 1.9 W 28 50 15 27 - - 0.0
23/10:00am -0.2 -7.8 -5.6 67 1.9 W 26 44 14 24 - - 0.0
23/09:30am -0.1 -8.5 -5.7 66 2.0 W 30 50 16 27 - - 0.0
23/09:00am -0.1 -11.0 -5.7 66 2.0 W 43 69 23 37 - - 0.0
23/08:30am -0.4 -11.5 -5.8 67 1.9 W 44 70 24 38 - - 0.0
23/08:00am -0.6 -12.8 -6.3 65 1.9 W 50 76 27 41 - - 0.0
23/07:30am -1.2 -12.7 -6.3 68 1.7 W 46 70 25 38 - - 0.0
23/07:00am -1.4 -13.3 -6.3 69 1.6 W 48 74 26 40 - - 0.0
23/06:30am -1.5 -13.3 -6.2 70 1.5 W 48 74 26 40 - - 0.0
23/06:00am -1.8 -12.7 -6.5 70 1.5 W 43 72 23 39 - - 0.0
23/05:30am -1.7 -10.7 -6.6 69 1.6 WNW 33 57 18 31 - - 0.0
23/05:00am -1.5 -10.5 -6.6 68 1.7 W 33 56 18 30 - - 0.0
23/04:30am -1.8 -10.6 -6.2 72 1.4 W 32 50 17 27 - - 0.0
23/04:18am -1.9 -9.9 -5.9 74 1.3 W 28 50 15 27 - - 0.0
23/04:00am -2.0 -8.9 -5.8 75 1.2 W 22 43 12 23 - - 0.0
23/03:30am -2.1 -8.0 -5.9 75 1.2 W 17 41 9 22 - - 0.0
23/03:00am -2.2 -7.0 -6.2 74 1.3 W 11 32 6 17 - - 0.0
23/02:30am -2.1 -7.0 -6.6 71 1.4 W 11 24 6 13 - - 0.0
23/02:00am -1.9 -7.3 -8.0 63 1.9 W 13 28 7 15 - - 0.0
23/01:30am -1.3 -8.4 -8.5 58 2.3 WNW 22 41 12 22 - - 0.0
23/01:00am -0.6 -8.2 -15.6 31 4.0 W 22 35 12 19 - - 0.0
23/12:30am -0.4 -7.1 -17.1 27 4.3 WNW 17 39 9 21 - - 0.0
23/12:00am -0.5 -5.8 -19.0 23 4.5 W 9 19 5 10 - - 0.0
 
Date/Time
EST
Temp
°C
App
Temp
°C
Dew
Point
°C
Rel
Hum
%
Delta-T
°C
Wind Press
QNH
hPa
Press
MSL
hPa
Rain since
9am
mm
Dir  Spd
km/h
Gust
km/h
Spd
kts
Gust
kts
22/11:30pm 0.7 -7.1 -19.6 20 5.1 WNW 22 35 12 19 - - 0.0
22/11:00pm 0.6 -7.2 -20.9 18 5.2 WNW 22 43 12 23 - - 0.0
22/10:30pm 0.1 -6.4 -20.7 19 5.0 WNW 15 24 8 13 - - 0.0
22/10:00pm 1.3 -5.3 -24.0 13 5.7 W 15 28 8 15 - - 0.0
22/09:30pm 2.0 -5.5 -23.5 13 6.0 W 20 37 11 20 - - 0.0
22/09:00pm 1.6 -5.9 -22.2 15 5.7 W 20 39 11 21 - - 0.0
22/08:30pm 2.7 -5.1 -21.3 15 6.0 W 22 37 12 20 - - 0.0
22/08:00pm 2.7 -4.5 -14.8 26 5.2 W 20 33 11 18 - - 0.0
22/07:30pm 2.6 -4.5 -14.0 28 5.0 W 20 37 11 20 - - 0.0

Other Formats:

Comma delimited format used in spreadsheet applications
http://www.bom.gov.au/fwo/IDN60801/IDN60801.94915.axf

JavaScript Object Notation format (JSON) in row-major order
http://www.bom.gov.au/fwo/IDN60801/IDN60801.94915.json